Coronel Brandsen, Argentina
Current Conditions -  °F | °C
As of 8:00 AM on Saturday 25 Oct 2014 (Local Time) from SAEZ Reporting Station
Haze Haze  
Wind Chill: 21°   Ceiling: Unl
Heat Index: 21°   Visibility: 1.8mi
Dew Point: 18°   Wind: 3mph
Humidity: 83%   Direction: 90°E
Pressure: 29.97"   Gusts: NA
Location:  35.17°S, 58.23°W
Report Text: SAEZ 251100Z 09003KT 3000 BR NSC 21/18 Q1015
Loading
Personal Weather Stations






























Interactive Weather Map
Tropical Storm Tracking
New forecast layout! Learn more

10-Day Weather Forecast

Advertisements
Track Severe Weather on mobile